sensor_id;sensor_type;location;lat;lon;timestamp;P1;durP1;ratioP1;P2;durP2;ratioP2
53313;SDS011;39202;51.468;7.146;2023-06-19T00:02:25;2.90;;;2.70;;
53313;SDS011;39202;51.468;7.146;2023-06-19T00:07:28;2.63;;;2.42;;
53313;SDS011;39202;51.468;7.146;2023-06-19T00:12:30;2.60;;;2.50;;
53313;SDS011;39202;51.468;7.146;2023-06-19T00:17:31;2.92;;;2.72;;
53313;SDS011;39202;51.468;7.146;2023-06-19T00:22:34;2.60;;;2.50;;
53313;SDS011;39202;51.468;7.146;2023-06-19T00:27:36;2.70;;;2.60;;
53313;SDS011;39202;51.468;7.146;2023-06-19T00:32:38;2.47;;;2.38;;
53313;SDS011;39202;51.468;7.146;2023-06-19T00:37:47;2.65;;;2.55;;
53313;SDS011;39202;51.468;7.146;2023-06-19T00:42:49;2.58;;;2.47;;
53313;SDS011;39202;51.468;7.146;2023-06-19T00:47:51;3.00;;;2.80;;
53313;SDS011;39202;51.468;7.146;2023-06-19T00:52:54;2.75;;;2.55;;
53313;SDS011;39202;51.468;7.146;2023-06-19T00:57:56;2.70;;;2.53;;
53313;SDS011;39202;51.468;7.146;2023-06-19T01:03:00;2.88;;;2.67;;
53313;SDS011;39202;51.468;7.146;2023-06-19T01:08:04;2.75;;;2.63;;
53313;SDS011;39202;51.468;7.146;2023-06-19T01:13:12;2.30;;;2.20;;
53313;SDS011;39202;51.468;7.146;2023-06-19T01:18:18;2.47;;;2.38;;
53313;SDS011;39202;51.468;7.146;2023-06-19T01:23:21;2.88;;;2.67;;
53313;SDS011;39202;51.468;7.146;2023-06-19T01:28:23;2.80;;;2.63;;
53313;SDS011;39202;51.468;7.146;2023-06-19T01:33:26;2.67;;;2.58;;
53313;SDS011;39202;51.468;7.146;2023-06-19T01:38:30;2.90;;;2.70;;
53313;SDS011;39202;51.468;7.146;2023-06-19T01:43:32;2.55;;;2.45;;
53313;SDS011;39202;51.468;7.146;2023-06-19T01:48:35;2.53;;;2.42;;
53313;SDS011;39202;51.468;7.146;2023-06-19T01:53:38;2.53;;;2.42;;
53313;SDS011;39202;51.468;7.146;2023-06-19T01:58:40;2.55;;;2.45;;
53313;SDS011;39202;51.468;7.146;2023-06-19T02:03:42;2.75;;;2.58;;
53313;SDS011;39202;51.468;7.146;2023-06-19T02:08:45;2.67;;;2.58;;
53313;SDS011;39202;51.468;7.146;2023-06-19T02:13:46;3.05;;;2.85;;
53313;SDS011;39202;51.468;7.146;2023-06-19T02:18:48;2.38;;;2.28;;
53313;SDS011;39202;51.468;7.146;2023-06-19T02:23:51;2.72;;;2.53;;
53313;SDS011;39202;51.468;7.146;2023-06-19T02:28:53;2.72;;;2.60;;
53313;SDS011;39202;51.468;7.146;2023-06-19T02:33:55;2.72;;;2.63;;
53313;SDS011;39202;51.468;7.146;2023-06-19T02:38:58;2.60;;;2.50;;
53313;SDS011;39202;51.468;7.146;2023-06-19T02:44:00;2.67;;;2.53;;
53313;SDS011;39202;51.468;7.146;2023-06-19T02:49:02;2.95;;;2.75;;
53313;SDS011;39202;51.468;7.146;2023-06-19T02:54:05;2.67;;;2.58;;
53313;SDS011;39202;51.468;7.146;2023-06-19T02:59:07;2.40;;;2.30;;
53313;SDS011;39202;51.468;7.146;2023-06-19T03:04:08;2.78;;;2.60;;
53313;SDS011;39202;51.468;7.146;2023-06-19T03:09:12;2.50;;;2.40;;
53313;SDS011;39202;51.468;7.146;2023-06-19T03:14:13;2.40;;;2.30;;
53313;SDS011;39202;51.468;7.146;2023-06-19T03:19:15;2.47;;;2.38;;
53313;SDS011;39202;51.468;7.146;2023-06-19T03:24:18;2.40;;;2.30;;
53313;SDS011;39202;51.468;7.146;2023-06-19T03:29:20;2.40;;;2.30;;
53313;SDS011;39202;51.468;7.146;2023-06-19T03:34:22;2.20;;;2.10;;
53313;SDS011;39202;51.468;7.146;2023-06-19T03:39:25;2.38;;;2.28;;
53313;SDS011;39202;51.468;7.146;2023-06-19T03:44:26;2.50;;;2.40;;
53313;SDS011;39202;51.468;7.146;2023-06-19T03:49:28;2.30;;;2.20;;
53313;SDS011;39202;51.468;7.146;2023-06-19T03:54:31;2.50;;;2.40;;
53313;SDS011;39202;51.468;7.146;2023-06-19T03:59:33;2.22;;;2.13;;
53313;SDS011;39202;51.468;7.146;2023-06-19T04:04:35;2.30;;;2.20;;
53313;SDS011;39202;51.468;7.146;2023-06-19T04:09:38;2.40;;;2.30;;
53313;SDS011;39202;51.468;7.146;2023-06-19T04:14:39;2.50;;;2.40;;
53313;SDS011;39202;51.468;7.146;2023-06-19T04:19:41;2.28;;;2.17;;
53313;SDS011;39202;51.468;7.146;2023-06-19T04:24:44;2.20;;;2.10;;
53313;SDS011;39202;51.468;7.146;2023-06-19T04:29:46;2.35;;;2.15;;
53313;SDS011;39202;51.468;7.146;2023-06-19T04:34:48;2.30;;;2.17;;
53313;SDS011;39202;51.468;7.146;2023-06-19T04:39:51;2.25;;;2.15;;
53313;SDS011;39202;51.468;7.146;2023-06-19T04:44:53;2.30;;;2.20;;
53313;SDS011;39202;51.468;7.146;2023-06-19T04:49:55;2.30;;;2.20;;
53313;SDS011;39202;51.468;7.146;2023-06-19T04:54:58;2.30;;;2.20;;
53313;SDS011;39202;51.468;7.146;2023-06-19T05:00:00;2.30;;;2.20;;
53313;SDS011;39202;51.468;7.146;2023-06-19T05:05:02;2.30;;;2.20;;
53313;SDS011;39202;51.468;7.146;2023-06-19T05:10:06;2.30;;;2.20;;
53313;SDS011;39202;51.468;7.146;2023-06-19T05:15:09;2.20;;;2.10;;
53313;SDS011;39202;51.468;7.146;2023-06-19T05:20:13;2.35;;;2.25;;
53313;SDS011;39202;51.468;7.146;2023-06-19T05:25:16;2.30;;;2.20;;
53313;SDS011;39202;51.468;7.146;2023-06-19T05:30:18;2.50;;;2.28;;
53313;SDS011;39202;51.468;7.146;2023-06-19T05:35:20;2.30;;;2.20;;
53313;SDS011;39202;51.468;7.146;2023-06-19T05:40:23;1.92;;;1.83;;
53313;SDS011;39202;51.468;7.146;2023-06-19T05:45:25;2.03;;;1.92;;
53313;SDS011;39202;51.468;7.146;2023-06-19T05:50:26;1.73;;;1.63;;
53313;SDS011;39202;51.468;7.146;2023-06-19T05:55:30;1.52;;;1.50;;
53313;SDS011;39202;51.468;7.146;2023-06-19T06:00:32;1.90;;;1.80;;
53313;SDS011;39202;51.468;7.146;2023-06-19T06:05:33;1.60;;;1.50;;
53313;SDS011;39202;51.468;7.146;2023-06-19T06:10:38;1.40;;;1.40;;
53313;SDS011;39202;51.468;7.146;2023-06-19T06:15:39;1.40;;;1.40;;
53313;SDS011;39202;51.468;7.146;2023-06-19T06:20:41;1.77;;;1.45;;
53313;SDS011;39202;51.468;7.146;2023-06-19T06:25:44;1.60;;;1.50;;
53313;SDS011;39202;51.468;7.146;2023-06-19T06:30:46;1.60;;;1.50;;
53313;SDS011;39202;51.468;7.146;2023-06-19T06:35:48;1.45;;;1.35;;
53313;SDS011;39202;51.468;7.146;2023-06-19T06:40:51;1.65;;;1.55;;
53313;SDS011;39202;51.468;7.146;2023-06-19T06:45:53;1.60;;;1.50;;
53313;SDS011;39202;51.468;7.146;2023-06-19T06:50:55;1.63;;;1.52;;
53313;SDS011;39202;51.468;7.146;2023-06-19T06:56:02;1.80;;;1.70;;
53313;SDS011;39202;51.468;7.146;2023-06-19T07:01:04;1.60;;;1.50;;
53313;SDS011;39202;51.468;7.146;2023-06-19T07:06:06;1.13;;;1.13;;
53313;SDS011;39202;51.468;7.146;2023-06-19T07:11:09;1.30;;;1.30;;
53313;SDS011;39202;51.468;7.146;2023-06-19T07:16:11;1.38;;;1.27;;
53313;SDS011;39202;51.468;7.146;2023-06-19T07:21:13;1.48;;;1.38;;
53313;SDS011;39202;51.468;7.146;2023-06-19T07:26:17;1.35;;;1.25;;
53313;SDS011;39202;51.468;7.146;2023-06-19T07:31:19;1.48;;;1.38;;
53313;SDS011;39202;51.468;7.146;2023-06-19T07:36:20;1.45;;;1.35;;
53313;SDS011;39202;51.468;7.146;2023-06-19T07:41:24;1.88;;;1.40;;
53313;SDS011;39202;51.468;7.146;2023-06-19T07:46:25;1.52;;;1.30;;
53313;SDS011;39202;51.468;7.146;2023-06-19T07:51:27;1.35;;;1.35;;
53313;SDS011;39202;51.468;7.146;2023-06-19T07:56:30;1.50;;;1.40;;
53313;SDS011;39202;51.468;7.146;2023-06-19T08:01:33;1.60;;;1.50;;
53313;SDS011;39202;51.468;7.146;2023-06-19T08:06:35;1.40;;;1.40;;
53313;SDS011;39202;51.468;7.146;2023-06-19T08:11:38;1.33;;;1.30;;
53313;SDS011;39202;51.468;7.146;2023-06-19T08:16:40;1.30;;;1.30;;
53313;SDS011;39202;51.468;7.146;2023-06-19T08:21:42;1.40;;;1.40;;
53313;SDS011;39202;51.468;7.146;2023-06-19T08:26:45;1.60;;;1.50;;
53313;SDS011;39202;51.468;7.146;2023-06-19T08:31:50;1.65;;;1.55;;
53313;SDS011;39202;51.468;7.146;2023-06-19T08:36:52;1.60;;;1.50;;
53313;SDS011;39202;51.468;7.146;2023-06-19T08:41:55;1.80;;;1.70;;
53313;SDS011;39202;51.468;7.146;2023-06-19T08:46:57;1.88;;;1.60;;
53313;SDS011;39202;51.468;7.146;2023-06-19T08:51:59;1.40;;;1.30;;
53313;SDS011;39202;51.468;7.146;2023-06-19T08:57:02;1.63;;;1.40;;
53313;SDS011;39202;51.468;7.146;2023-06-19T09:02:05;1.30;;;1.30;;
53313;SDS011;39202;51.468;7.146;2023-06-19T09:07:08;1.40;;;1.30;;
53313;SDS011;39202;51.468;7.146;2023-06-19T09:12:12;1.23;;;1.15;;
53313;SDS011;39202;51.468;7.146;2023-06-19T09:17:17;1.10;;;1.10;;
53313;SDS011;39202;51.468;7.146;2023-06-19T09:22:21;1.20;;;1.20;;
53313;SDS011;39202;51.468;7.146;2023-06-19T09:27:31;1.20;;;1.20;;
53313;SDS011;39202;51.468;7.146;2023-06-19T09:32:33;1.35;;;1.30;;
53313;SDS011;39202;51.468;7.146;2023-06-19T09:37:36;1.50;;;1.40;;
53313;SDS011;39202;51.468;7.146;2023-06-19T09:42:42;1.83;;;1.45;;
53313;SDS011;39202;51.468;7.146;2023-06-19T09:47:45;1.63;;;1.52;;
53313;SDS011;39202;51.468;7.146;2023-06-19T09:52:48;1.50;;;1.40;;
53313;SDS011;39202;51.468;7.146;2023-06-19T09:57:52;1.40;;;1.30;;
53313;SDS011;39202;51.468;7.146;2023-06-19T10:02:54;1.45;;;1.40;;
53313;SDS011;39202;51.468;7.146;2023-06-19T10:07:58;1.48;;;1.42;;
53313;SDS011;39202;51.468;7.146;2023-06-19T10:13:12;2.10;;;1.70;;
53313;SDS011;39202;51.468;7.146;2023-06-19T10:18:15;1.70;;;1.60;;
53313;SDS011;39202;51.468;7.146;2023-06-19T10:23:19;2.65;;;1.65;;
53313;SDS011;39202;51.468;7.146;2023-06-19T10:28:25;1.70;;;1.60;;
53313;SDS011;39202;51.468;7.146;2023-06-19T10:33:28;1.83;;;1.73;;
53313;SDS011;39202;51.468;7.146;2023-06-19T10:38:32;1.85;;;1.75;;
53313;SDS011;39202;51.468;7.146;2023-06-19T10:43:35;1.92;;;1.83;;
53313;SDS011;39202;51.468;7.146;2023-06-19T10:48:37;2.10;;;2.00;;
53313;SDS011;39202;51.468;7.146;2023-06-19T10:53:39;1.90;;;1.80;;
53313;SDS011;39202;51.468;7.146;2023-06-19T10:58:42;2.10;;;2.00;;
53313;SDS011;39202;51.468;7.146;2023-06-19T11:03:43;2.20;;;2.00;;
53313;SDS011;39202;51.468;7.146;2023-06-19T11:08:50;2.42;;;2.22;;
53313;SDS011;39202;51.468;7.146;2023-06-19T11:13:54;2.30;;;2.15;;
53313;SDS011;39202;51.468;7.146;2023-06-19T11:18:56;2.35;;;2.15;;
53313;SDS011;39202;51.468;7.146;2023-06-19T11:23:58;1.98;;;1.88;;
53313;SDS011;39202;51.468;7.146;2023-06-19T11:29:02;2.60;;;2.40;;
53313;SDS011;39202;51.468;7.146;2023-06-19T11:34:14;2.22;;;1.98;;
53313;SDS011;39202;51.468;7.146;2023-06-19T11:39:16;1.90;;;1.80;;
53313;SDS011;39202;51.468;7.146;2023-06-19T11:44:20;2.20;;;2.05;;
53313;SDS011;39202;51.468;7.146;2023-06-19T11:49:21;2.30;;;2.20;;
53313;SDS011;39202;51.468;7.146;2023-06-19T11:54:23;2.08;;;1.98;;
53313;SDS011;39202;51.468;7.146;2023-06-19T11:59:26;2.33;;;2.13;;
53313;SDS011;39202;51.468;7.146;2023-06-19T12:04:28;2.30;;;2.10;;
53313;SDS011;39202;51.468;7.146;2023-06-19T12:09:30;2.40;;;2.20;;
53313;SDS011;39202;51.468;7.146;2023-06-19T12:14:33;2.47;;;2.28;;
53313;SDS011;39202;51.468;7.146;2023-06-19T12:19:35;2.22;;;2.03;;
53313;SDS011;39202;51.468;7.146;2023-06-19T12:24:37;2.60;;;2.38;;
53313;SDS011;39202;51.468;7.146;2023-06-19T12:29:40;2.83;;;2.17;;
53313;SDS011;39202;51.468;7.146;2023-06-19T12:34:41;2.60;;;2.40;;
53313;SDS011;39202;51.468;7.146;2023-06-19T12:39:46;2.50;;;2.33;;
53313;SDS011;39202;51.468;7.146;2023-06-19T12:44:49;2.53;;;2.33;;
53313;SDS011;39202;51.468;7.146;2023-06-19T12:49:51;6.03;;;2.72;;
53313;SDS011;39202;51.468;7.146;2023-06-19T12:54:53;2.35;;;2.25;;
53313;SDS011;39202;51.468;7.146;2023-06-19T12:59:56;2.58;;;2.47;;
53313;SDS011;39202;51.468;7.146;2023-06-19T13:04:58;2.88;;;2.67;;
53313;SDS011;39202;51.468;7.146;2023-06-19T13:10:00;2.70;;;2.50;;
53313;SDS011;39202;51.468;7.146;2023-06-19T13:15:03;4.18;;;2.90;;
53313;SDS011;39202;51.468;7.146;2023-06-19T13:20:06;2.83;;;2.63;;
53313;SDS011;39202;51.468;7.146;2023-06-19T13:25:09;2.75;;;2.60;;
53313;SDS011;39202;51.468;7.146;2023-06-19T13:30:12;3.00;;;2.78;;
53313;SDS011;39202;51.468;7.146;2023-06-19T13:35:14;2.78;;;2.58;;
53313;SDS011;39202;51.468;7.146;2023-06-19T13:40:16;2.50;;;2.40;;
53313;SDS011;39202;51.468;7.146;2023-06-19T13:45:19;2.85;;;2.65;;
53313;SDS011;39202;51.468;7.146;2023-06-19T13:50:21;2.72;;;2.53;;
53313;SDS011;39202;51.468;7.146;2023-06-19T13:55:23;2.63;;;2.42;;
53313;SDS011;39202;51.468;7.146;2023-06-19T14:00:26;2.95;;;2.75;;
53313;SDS011;39202;51.468;7.146;2023-06-19T14:05:28;2.95;;;2.53;;
53313;SDS011;39202;51.468;7.146;2023-06-19T14:10:32;2.75;;;2.53;;
53313;SDS011;39202;51.468;7.146;2023-06-19T14:15:35;3.13;;;2.70;;
53313;SDS011;39202;51.468;7.146;2023-06-19T14:20:37;2.78;;;2.58;;
53313;SDS011;39202;51.468;7.146;2023-06-19T14:25:39;2.67;;;2.47;;
53313;SDS011;39202;51.468;7.146;2023-06-19T14:30:42;2.90;;;2.70;;
53313;SDS011;39202;51.468;7.146;2023-06-19T14:35:44;2.67;;;2.47;;
53313;SDS011;39202;51.468;7.146;2023-06-19T14:40:46;2.70;;;2.35;;
53313;SDS011;39202;51.468;7.146;2023-06-19T14:45:49;2.63;;;2.42;;
53313;SDS011;39202;51.468;7.146;2023-06-19T14:50:51;3.65;;;2.70;;
53313;SDS011;39202;51.468;7.146;2023-06-19T14:55:52;2.80;;;2.50;;
53313;SDS011;39202;51.468;7.146;2023-06-19T15:00:56;2.83;;;2.63;;
53313;SDS011;39202;51.468;7.146;2023-06-19T15:05:58;2.97;;;2.78;;
53313;SDS011;39202;51.468;7.146;2023-06-19T15:16:04;2.88;;;2.60;;
53313;SDS011;39202;51.468;7.146;2023-06-19T15:21:07;3.53;;;2.80;;
53313;SDS011;39202;51.468;7.146;2023-06-19T15:26:09;2.55;;;2.42;;
53313;SDS011;39202;51.468;7.146;2023-06-19T15:31:12;3.08;;;2.65;;
53313;SDS011;39202;51.468;7.146;2023-06-19T15:36:15;2.70;;;2.50;;
53313;SDS011;39202;51.468;7.146;2023-06-19T15:41:18;2.72;;;2.53;;
53313;SDS011;39202;51.468;7.146;2023-06-19T15:46:21;2.80;;;2.60;;
53313;SDS011;39202;51.468;7.146;2023-06-19T15:51:23;2.70;;;2.50;;
53313;SDS011;39202;51.468;7.146;2023-06-19T15:56:24;3.70;;;2.30;;
53313;SDS011;39202;51.468;7.146;2023-06-19T16:01:29;3.10;;;2.15;;
53313;SDS011;39202;51.468;7.146;2023-06-19T16:06:31;2.53;;;2.33;;
53313;SDS011;39202;51.468;7.146;2023-06-19T16:11:32;2.42;;;2.33;;
53313;SDS011;39202;51.468;7.146;2023-06-19T16:16:35;2.60;;;2.50;;
53313;SDS011;39202;51.468;7.146;2023-06-19T16:21:37;2.42;;;2.30;;
53313;SDS011;39202;51.468;7.146;2023-06-19T16:26:39;2.50;;;2.40;;
53313;SDS011;39202;51.468;7.146;2023-06-19T16:31:42;2.60;;;2.40;;
53313;SDS011;39202;51.468;7.146;2023-06-19T16:36:44;2.47;;;2.38;;
53313;SDS011;39202;51.468;7.146;2023-06-19T16:41:46;2.30;;;2.20;;
53313;SDS011;39202;51.468;7.146;2023-06-19T16:46:49;2.58;;;2.45;;
53313;SDS011;39202;51.468;7.146;2023-06-19T16:51:51;2.13;;;2.03;;
53313;SDS011;39202;51.468;7.146;2023-06-19T16:56:52;2.70;;;2.50;;
53313;SDS011;39202;51.468;7.146;2023-06-19T17:01:57;2.50;;;2.30;;
53313;SDS011;39202;51.468;7.146;2023-06-19T17:06:58;2.95;;;2.60;;
53313;SDS011;39202;51.468;7.146;2023-06-19T17:12:00;2.30;;;2.05;;
53313;SDS011;39202;51.468;7.146;2023-06-19T17:17:04;2.20;;;2.10;;
53313;SDS011;39202;51.468;7.146;2023-06-19T17:22:06;2.47;;;2.28;;
53313;SDS011;39202;51.468;7.146;2023-06-19T17:27:08;2.35;;;2.15;;
53313;SDS011;39202;51.468;7.146;2023-06-19T17:32:11;2.70;;;2.47;;
53313;SDS011;39202;51.468;7.146;2023-06-19T17:37:13;3.20;;;2.60;;
53313;SDS011;39202;51.468;7.146;2023-06-19T17:42:14;2.17;;;2.00;;
53313;SDS011;39202;51.468;7.146;2023-06-19T17:47:17;1.95;;;1.85;;
53313;SDS011;39202;51.468;7.146;2023-06-19T17:52:19;2.10;;;2.00;;
53313;SDS011;39202;51.468;7.146;2023-06-19T17:57:22;2.30;;;2.20;;
53313;SDS011;39202;51.468;7.146;2023-06-19T18:02:26;2.60;;;2.40;;
53313;SDS011;39202;51.468;7.146;2023-06-19T18:07:30;2.03;;;1.92;;
53313;SDS011;39202;51.468;7.146;2023-06-19T18:12:31;2.15;;;2.05;;
53313;SDS011;39202;51.468;7.146;2023-06-19T18:17:34;2.10;;;2.00;;
53313;SDS011;39202;51.468;7.146;2023-06-19T18:22:36;1.90;;;1.80;;
53313;SDS011;39202;51.468;7.146;2023-06-19T18:27:38;2.00;;;1.90;;
53313;SDS011;39202;51.468;7.146;2023-06-19T18:32:41;2.10;;;2.00;;
53313;SDS011;39202;51.468;7.146;2023-06-19T18:37:43;2.53;;;2.33;;
53313;SDS011;39202;51.468;7.146;2023-06-19T18:42:45;2.20;;;2.10;;
53313;SDS011;39202;51.468;7.146;2023-06-19T18:47:48;2.33;;;2.15;;
53313;SDS011;39202;51.468;7.146;2023-06-19T18:52:50;2.30;;;2.20;;
53313;SDS011;39202;51.468;7.146;2023-06-19T18:57:52;2.35;;;2.25;;
53313;SDS011;39202;51.468;7.146;2023-06-19T19:02:55;2.50;;;2.30;;
53313;SDS011;39202;51.468;7.146;2023-06-19T19:07:56;2.28;;;2.08;;
53313;SDS011;39202;51.468;7.146;2023-06-19T19:12:58;2.53;;;2.30;;
53313;SDS011;39202;51.468;7.146;2023-06-19T19:18:02;2.05;;;1.95;;
53313;SDS011;39202;51.468;7.146;2023-06-19T19:23:04;2.13;;;1.98;;
53313;SDS011;39202;51.468;7.146;2023-06-19T19:28:06;2.50;;;2.30;;
53313;SDS011;39202;51.468;7.146;2023-06-19T19:33:14;3.38;;;2.10;;
53313;SDS011;39202;51.468;7.146;2023-06-19T19:38:17;2.38;;;2.10;;
53313;SDS011;39202;51.468;7.146;2023-06-19T19:43:20;2.38;;;2.17;;
53313;SDS011;39202;51.468;7.146;2023-06-19T19:48:23;2.17;;;2.08;;
53313;SDS011;39202;51.468;7.146;2023-06-19T19:53:24;2.53;;;2.33;;
53313;SDS011;39202;51.468;7.146;2023-06-19T19:58:26;2.83;;;2.08;;
53313;SDS011;39202;51.468;7.146;2023-06-19T20:03:30;2.28;;;2.08;;
53313;SDS011;39202;51.468;7.146;2023-06-19T20:08:36;2.30;;;2.10;;
53313;SDS011;39202;51.468;7.146;2023-06-19T20:13:37;2.53;;;2.33;;
53313;SDS011;39202;51.468;7.146;2023-06-19T20:18:41;2.72;;;2.40;;
53313;SDS011;39202;51.468;7.146;2023-06-19T20:23:42;2.33;;;2.22;;
53313;SDS011;39202;51.468;7.146;2023-06-19T20:28:44;2.30;;;2.05;;
53313;SDS011;39202;51.468;7.146;2023-06-19T20:33:49;2.25;;;2.13;;
53313;SDS011;39202;51.468;7.146;2023-06-19T20:38:51;2.30;;;2.20;;
53313;SDS011;39202;51.468;7.146;2023-06-19T20:43:53;2.55;;;2.35;;
53313;SDS011;39202;51.468;7.146;2023-06-19T20:48:56;2.22;;;2.13;;
53313;SDS011;39202;51.468;7.146;2023-06-19T20:53:58;2.30;;;2.20;;
53313;SDS011;39202;51.468;7.146;2023-06-19T20:59:00;2.05;;;1.92;;
53313;SDS011;39202;51.468;7.146;2023-06-19T21:04:03;2.40;;;2.17;;
53313;SDS011;39202;51.468;7.146;2023-06-19T21:09:05;2.20;;;2.10;;
53313;SDS011;39202;51.468;7.146;2023-06-19T21:14:08;2.70;;;2.00;;
53313;SDS011;39202;51.468;7.146;2023-06-19T21:19:11;2.35;;;2.20;;
53313;SDS011;39202;51.468;7.146;2023-06-19T21:24:13;2.60;;;2.30;;
53313;SDS011;39202;51.468;7.146;2023-06-19T21:29:16;2.10;;;2.00;;
53313;SDS011;39202;51.468;7.146;2023-06-19T21:34:19;2.20;;;2.10;;
53313;SDS011;39202;51.468;7.146;2023-06-19T21:39:23;2.25;;;2.08;;
53313;SDS011;39202;51.468;7.146;2023-06-19T21:44:25;2.40;;;2.20;;
53313;SDS011;39202;51.468;7.146;2023-06-19T21:49:28;2.10;;;2.00;;
53313;SDS011;39202;51.468;7.146;2023-06-19T21:54:29;2.13;;;2.03;;
53313;SDS011;39202;51.468;7.146;2023-06-19T21:59:31;2.30;;;2.13;;
53313;SDS011;39202;51.468;7.146;2023-06-19T22:04:34;2.20;;;2.10;;
53313;SDS011;39202;51.468;7.146;2023-06-19T22:09:36;2.05;;;1.95;;
53313;SDS011;39202;51.468;7.146;2023-06-19T22:14:38;2.10;;;2.00;;
53313;SDS011;39202;51.468;7.146;2023-06-19T22:19:42;2.25;;;2.10;;
53313;SDS011;39202;51.468;7.146;2023-06-19T22:24:44;1.98;;;1.88;;
53313;SDS011;39202;51.468;7.146;2023-06-19T22:29:46;2.10;;;2.00;;
53313;SDS011;39202;51.468;7.146;2023-06-19T22:34:49;1.95;;;1.85;;
53313;SDS011;39202;51.468;7.146;2023-06-19T22:39:50;2.03;;;1.92;;
53313;SDS011;39202;51.468;7.146;2023-06-19T22:44:52;2.17;;;1.98;;
53313;SDS011;39202;51.468;7.146;2023-06-19T22:49:55;2.03;;;1.92;;
53313;SDS011;39202;51.468;7.146;2023-06-19T22:54:57;2.35;;;2.25;;
53313;SDS011;39202;51.468;7.146;2023-06-19T22:59:59;2.22;;;2.10;;
53313;SDS011;39202;51.468;7.146;2023-06-19T23:05:02;2.05;;;1.95;;
53313;SDS011;39202;51.468;7.146;2023-06-19T23:10:05;2.05;;;1.95;;
53313;SDS011;39202;51.468;7.146;2023-06-19T23:15:09;2.13;;;2.03;;
53313;SDS011;39202;51.468;7.146;2023-06-19T23:20:12;1.90;;;1.80;;
53313;SDS011;39202;51.468;7.146;2023-06-19T23:25:14;3.00;;;2.45;;
53313;SDS011;39202;51.468;7.146;2023-06-19T23:30:16;2.33;;;2.22;;
53313;SDS011;39202;51.468;7.146;2023-06-19T23:35:19;1.90;;;1.80;;
53313;SDS011;39202;51.468;7.146;2023-06-19T23:40:22;2.10;;;2.00;;
53313;SDS011;39202;51.468;7.146;2023-06-19T23:45:24;2.08;;;1.98;;
53313;SDS011;39202;51.468;7.146;2023-06-19T23:50:27;2.00;;;1.90;;
53313;SDS011;39202;51.468;7.146;2023-06-19T23:55:29;2.15;;;2.05;;
